sensor_id;sensor_type;location;lat;lon;timestamp;temperature;humidity
63219;DHT22;49320;52.512;13.448;2023-03-01T00:01:38;3.90;57.80
63219;DHT22;49320;52.512;13.448;2023-03-01T00:04:05;3.90;57.90
63219;DHT22;49320;52.512;13.448;2023-03-01T00:06:32;3.90;57.70
63219;DHT22;49320;52.512;13.448;2023-03-01T00:08:59;3.90;57.90
63219;DHT22;49320;52.512;13.448;2023-03-01T00:11:28;3.90;57.90
63219;DHT22;49320;52.512;13.448;2023-03-01T00:13:58;3.90;58.00
63219;DHT22;49320;52.512;13.448;2023-03-01T00:16:36;3.90;58.10
63219;DHT22;49320;52.512;13.448;2023-03-01T00:19:11;3.90;58.10
63219;DHT22;49320;52.512;13.448;2023-03-01T00:21:40;3.90;58.10
63219;DHT22;49320;52.512;13.448;2023-03-01T00:24:08;3.80;57.50
63219;DHT22;49320;52.512;13.448;2023-03-01T00:26:35;3.80;58.00
63219;DHT22;49320;52.512;13.448;2023-03-01T00:29:02;3.80;58.10
63219;DHT22;49320;52.512;13.448;2023-03-01T00:31:31;3.80;58.10
63219;DHT22;49320;52.512;13.448;2023-03-01T00:34:01;3.80;58.20
63219;DHT22;49320;52.512;13.448;2023-03-01T00:36:32;3.80;58.20
63219;DHT22;49320;52.512;13.448;2023-03-01T00:39:03;3.80;58.30
63219;DHT22;49320;52.512;13.448;2023-03-01T00:41:32;3.80;58.10
63219;DHT22;49320;52.512;13.448;2023-03-01T00:46:28;6.20;59.30
63219;DHT22;49320;52.512;13.448;2023-03-01T00:48:57;3.60;58.30
63219;DHT22;49320;52.512;13.448;2023-03-01T00:51:26;3.80;58.50
63219;DHT22;49320;52.512;13.448;2023-03-01T00:53:55;3.70;58.50
63219;DHT22;49320;52.512;13.448;2023-03-01T00:56:23;3.70;58.50
63219;DHT22;49320;52.512;13.448;2023-03-01T00:58:50;3.70;58.60
63219;DHT22;49320;52.512;13.448;2023-03-01T01:01:22;3.80;58.60
63219;DHT22;49320;52.512;13.448;2023-03-01T01:04:09;3.80;58.60
63219;DHT22;49320;52.512;13.448;2023-03-01T01:06:45;3.70;58.60
63219;DHT22;49320;52.512;13.448;2023-03-01T01:09:16;3.70;58.70
63219;DHT22;49320;52.512;13.448;2023-03-01T01:11:49;3.70;58.70
63219;DHT22;49320;52.512;13.448;2023-03-01T01:14:18;3.70;58.20
63219;DHT22;49320;52.512;13.448;2023-03-01T01:16:45;3.70;58.20
63219;DHT22;49320;52.512;13.448;2023-03-01T01:19:12;3.70;58.70
63219;DHT22;49320;52.512;13.448;2023-03-01T01:21:40;3.70;58.60
63219;DHT22;49320;52.512;13.448;2023-03-01T01:24:09;3.60;58.80
63219;DHT22;49320;52.512;13.448;2023-03-01T01:26:36;3.60;58.50
63219;DHT22;49320;52.512;13.448;2023-03-01T01:29:04;3.60;58.80
63219;DHT22;49320;52.512;13.448;2023-03-01T01:31:33;3.60;58.60
63219;DHT22;49320;52.512;13.448;2023-03-01T01:34:01;3.60;58.90
63219;DHT22;49320;52.512;13.448;2023-03-01T01:36:31;3.50;58.40
63219;DHT22;49320;52.512;13.448;2023-03-01T01:38:59;3.50;58.90
63219;DHT22;49320;52.512;13.448;2023-03-01T01:41:27;3.50;58.50
63219;DHT22;49320;52.512;13.448;2023-03-01T01:44:17;3.50;58.70
63219;DHT22;49320;52.512;13.448;2023-03-01T01:49:38;3.50;59.00
63219;DHT22;49320;52.512;13.448;2023-03-01T01:52:24;3.50;59.10
63219;DHT22;49320;52.512;13.448;2023-03-01T01:55:02;3.40;59.10
63219;DHT22;49320;52.512;13.448;2023-03-01T01:57:38;3.30;59.00
63219;DHT22;49320;52.512;13.448;2023-03-01T02:00:13;3.40;59.10
63219;DHT22;49320;52.512;13.448;2023-03-01T02:02:47;3.40;59.20
63219;DHT22;49320;52.512;13.448;2023-03-01T02:05:26;3.40;59.20
63219;DHT22;49320;52.512;13.448;2023-03-01T02:07:59;3.30;59.30
63219;DHT22;49320;52.512;13.448;2023-03-01T02:10:28;3.30;59.90
63219;DHT22;49320;52.512;13.448;2023-03-01T02:12:56;3.30;59.30
63219;DHT22;49320;52.512;13.448;2023-03-01T02:15:24;3.30;59.20
63219;DHT22;49320;52.512;13.448;2023-03-01T02:17:53;3.30;59.30
63219;DHT22;49320;52.512;13.448;2023-03-01T02:20:27;3.30;59.30
63219;DHT22;49320;52.512;13.448;2023-03-01T02:23:00;3.30;59.50
63219;DHT22;49320;52.512;13.448;2023-03-01T02:25:54;3.30;59.40
63219;DHT22;49320;52.512;13.448;2023-03-01T02:30:53;3.20;58.90
63219;DHT22;49320;52.512;13.448;2023-03-01T02:33:40;3.20;59.40
63219;DHT22;49320;52.512;13.448;2023-03-01T02:36:15;3.20;59.40
63219;DHT22;49320;52.512;13.448;2023-03-01T02:38:45;3.20;59.50
63219;DHT22;49320;52.512;13.448;2023-03-01T02:41:16;3.20;59.00
63219;DHT22;49320;52.512;13.448;2023-03-01T02:43:45;3.20;59.50
63219;DHT22;49320;52.512;13.448;2023-03-01T02:46:19;3.30;59.40
63219;DHT22;49320;52.512;13.448;2023-03-01T02:48:53;3.30;59.70
63219;DHT22;49320;52.512;13.448;2023-03-01T02:54:28;3.20;59.30
63219;DHT22;49320;52.512;13.448;2023-03-01T02:57:00;3.20;59.20
63219;DHT22;49320;52.512;13.448;2023-03-01T02:59:31;3.20;59.60
63219;DHT22;49320;52.512;13.448;2023-03-01T03:02:06;3.20;59.80
63219;DHT22;49320;52.512;13.448;2023-03-01T03:04:34;3.20;59.80
63219;DHT22;49320;52.512;13.448;2023-03-01T03:07:01;3.20;59.90
63219;DHT22;49320;52.512;13.448;2023-03-01T03:09:28;3.10;59.90
63219;DHT22;49320;52.512;13.448;2023-03-01T03:11:54;3.20;60.00
63219;DHT22;49320;52.512;13.448;2023-03-01T03:14:21;3.10;60.00
63219;DHT22;49320;52.512;13.448;2023-03-01T03:16:49;3.10;60.00
63219;DHT22;49320;52.512;13.448;2023-03-01T03:19:18;3.10;60.00
63219;DHT22;49320;52.512;13.448;2023-03-01T03:21:46;3.10;60.00
63219;DHT22;49320;52.512;13.448;2023-03-01T03:26:40;3.00;59.80
63219;DHT22;49320;52.512;13.448;2023-03-01T03:29:06;3.00;60.10
63219;DHT22;49320;52.512;13.448;2023-03-01T03:31:33;3.00;60.20
63219;DHT22;49320;52.512;13.448;2023-03-01T03:34:00;3.00;60.20
63219;DHT22;49320;52.512;13.448;2023-03-01T03:36:27;3.00;60.10
63219;DHT22;49320;52.512;13.448;2023-03-01T03:38:54;3.00;60.40
63219;DHT22;49320;52.512;13.448;2023-03-01T03:41:21;2.90;59.90
63219;DHT22;49320;52.512;13.448;2023-03-01T03:43:48;2.80;60.30
63219;DHT22;49320;52.512;13.448;2023-03-01T03:46:15;2.80;61.60
63219;DHT22;49320;52.512;13.448;2023-03-01T03:48:44;2.80;60.40
63219;DHT22;49320;52.512;13.448;2023-03-01T03:51:14;2.90;60.60
63219;DHT22;49320;52.512;13.448;2023-03-01T03:53:42;2.80;60.00
63219;DHT22;49320;52.512;13.448;2023-03-01T03:56:11;2.80;60.60
63219;DHT22;49320;52.512;13.448;2023-03-01T03:58:38;2.80;60.70
63219;DHT22;49320;52.512;13.448;2023-03-01T04:01:06;2.80;60.90
63219;DHT22;49320;52.512;13.448;2023-03-01T04:03:33;2.70;60.90
63219;DHT22;49320;52.512;13.448;2023-03-01T04:06:02;2.70;61.00
63219;DHT22;49320;52.512;13.448;2023-03-01T04:08:30;2.70;61.10
63219;DHT22;49320;52.512;13.448;2023-03-01T04:11:00;2.70;61.20
63219;DHT22;49320;52.512;13.448;2023-03-01T04:13:47;2.70;61.30
63219;DHT22;49320;52.512;13.448;2023-03-01T04:16:14;2.70;61.30
63219;DHT22;49320;52.512;13.448;2023-03-01T04:18:41;2.70;61.50
63219;DHT22;49320;52.512;13.448;2023-03-01T04:21:08;2.70;61.60
63219;DHT22;49320;52.512;13.448;2023-03-01T04:23:35;2.70;61.70
63219;DHT22;49320;52.512;13.448;2023-03-01T04:26:03;2.70;61.80
63219;DHT22;49320;52.512;13.448;2023-03-01T04:28:32;2.70;61.90
63219;DHT22;49320;52.512;13.448;2023-03-01T04:31:05;1.30;60.50
63219;DHT22;49320;52.512;13.448;2023-03-01T04:33:41;2.70;62.10
63219;DHT22;49320;52.512;13.448;2023-03-01T04:36:13;2.70;62.20
63219;DHT22;49320;52.512;13.448;2023-03-01T04:38:41;2.60;62.20
63219;DHT22;49320;52.512;13.448;2023-03-01T04:41:10;2.60;61.60
63219;DHT22;49320;52.512;13.448;2023-03-01T04:43:37;2.60;62.40
63219;DHT22;49320;52.512;13.448;2023-03-01T04:46:06;2.60;62.30
63219;DHT22;49320;52.512;13.448;2023-03-01T04:48:37;2.60;62.40
63219;DHT22;49320;52.512;13.448;2023-03-01T04:51:05;2.60;62.40
63219;DHT22;49320;52.512;13.448;2023-03-01T04:56:05;2.60;61.90
63219;DHT22;49320;52.512;13.448;2023-03-01T04:58:32;2.50;61.80
63219;DHT22;49320;52.512;13.448;2023-03-01T05:00:59;2.50;62.50
63219;DHT22;49320;52.512;13.448;2023-03-01T05:03:26;2.50;61.90
63219;DHT22;49320;52.512;13.448;2023-03-01T05:05:53;2.50;62.50
63219;DHT22;49320;52.512;13.448;2023-03-01T05:08:20;2.50;62.60
63219;DHT22;49320;52.512;13.448;2023-03-01T05:10:52;2.50;62.70
63219;DHT22;49320;52.512;13.448;2023-03-01T05:13:20;2.40;62.70
63219;DHT22;49320;52.512;13.448;2023-03-01T05:15:49;2.50;62.80
63219;DHT22;49320;52.512;13.448;2023-03-01T05:18:21;2.50;62.80
63219;DHT22;49320;52.512;13.448;2023-03-01T05:20:53;2.50;62.80
63219;DHT22;49320;52.512;13.448;2023-03-01T05:23:22;2.30;62.70
63219;DHT22;49320;52.512;13.448;2023-03-01T05:25:49;2.40;62.70
63219;DHT22;49320;52.512;13.448;2023-03-01T05:28:19;2.40;62.80
63219;DHT22;49320;52.512;13.448;2023-03-01T05:30:47;2.40;62.80
63219;DHT22;49320;52.512;13.448;2023-03-01T05:33:13;2.40;62.90
63219;DHT22;49320;52.512;13.448;2023-03-01T05:35:44;2.30;62.90
63219;DHT22;49320;52.512;13.448;2023-03-01T05:38:12;2.30;63.00
63219;DHT22;49320;52.512;13.448;2023-03-01T05:40:41;2.40;63.10
63219;DHT22;49320;52.512;13.448;2023-03-01T05:43:10;2.30;63.10
63219;DHT22;49320;52.512;13.448;2023-03-01T05:45:39;2.40;63.10
63219;DHT22;49320;52.512;13.448;2023-03-01T05:48:08;2.30;63.20
63219;DHT22;49320;52.512;13.448;2023-03-01T05:50:39;2.30;62.60
63219;DHT22;49320;52.512;13.448;2023-03-01T05:53:11;2.30;63.30
63219;DHT22;49320;52.512;13.448;2023-03-01T05:55:40;2.30;62.70
63219;DHT22;49320;52.512;13.448;2023-03-01T05:58:14;2.30;63.30
63219;DHT22;49320;52.512;13.448;2023-03-01T06:00:45;2.30;63.40
63219;DHT22;49320;52.512;13.448;2023-03-01T06:03:15;2.30;63.40
63219;DHT22;49320;52.512;13.448;2023-03-01T06:05:43;2.30;63.60
63219;DHT22;49320;52.512;13.448;2023-03-01T06:08:11;2.30;63.60
63219;DHT22;49320;52.512;13.448;2023-03-01T06:10:39;2.30;63.70
63219;DHT22;49320;52.512;13.448;2023-03-01T06:13:07;2.30;63.70
63219;DHT22;49320;52.512;13.448;2023-03-01T06:15:33;2.20;65.00
63219;DHT22;49320;52.512;13.448;2023-03-01T06:18:00;2.40;63.80
63219;DHT22;49320;52.512;13.448;2023-03-01T06:20:28;2.40;63.70
63219;DHT22;49320;52.512;13.448;2023-03-01T06:22:58;2.40;63.80
63219;DHT22;49320;52.512;13.448;2023-03-01T06:25:26;2.50;63.70
63219;DHT22;49320;52.512;13.448;2023-03-01T06:27:54;2.40;63.80
63219;DHT22;49320;52.512;13.448;2023-03-01T06:30:23;2.40;65.90
63219;DHT22;49320;52.512;13.448;2023-03-01T06:32:52;2.60;64.00
63219;DHT22;49320;52.512;13.448;2023-03-01T06:35:19;2.60;64.00
63219;DHT22;49320;52.512;13.448;2023-03-01T06:37:47;2.60;64.00
63219;DHT22;49320;52.512;13.448;2023-03-01T06:42:47;2.70;63.40
63219;DHT22;49320;52.512;13.448;2023-03-01T06:45:17;2.70;64.00
63219;DHT22;49320;52.512;13.448;2023-03-01T06:47:45;2.70;64.80
63219;DHT22;49320;52.512;13.448;2023-03-01T06:50:13;2.80;64.20
63219;DHT22;49320;52.512;13.448;2023-03-01T06:52:40;2.80;64.20
63219;DHT22;49320;52.512;13.448;2023-03-01T06:55:07;2.90;65.30
63219;DHT22;49320;52.512;13.448;2023-03-01T06:57:34;2.90;64.20
63219;DHT22;49320;52.512;13.448;2023-03-01T07:00:05;3.00;64.20
63219;DHT22;49320;52.512;13.448;2023-03-01T07:02:33;3.00;64.20
63219;DHT22;49320;52.512;13.448;2023-03-01T07:05:00;3.10;64.20
63219;DHT22;49320;52.512;13.448;2023-03-01T07:07:27;3.10;64.20
63219;DHT22;49320;52.512;13.448;2023-03-01T07:09:53;3.10;64.20
63219;DHT22;49320;52.512;13.448;2023-03-01T07:12:20;3.20;64.20
63219;DHT22;49320;52.512;13.448;2023-03-01T07:14:47;3.10;64.10
63219;DHT22;49320;52.512;13.448;2023-03-01T07:17:14;3.30;64.20
63219;DHT22;49320;52.512;13.448;2023-03-01T07:19:40;3.30;63.50
63219;DHT22;49320;52.512;13.448;2023-03-01T07:22:07;3.40;64.10
63219;DHT22;49320;52.512;13.448;2023-03-01T07:24:35;3.50;64.10
63219;DHT22;49320;52.512;13.448;2023-03-01T07:27:02;3.60;64.10
63219;DHT22;49320;52.512;13.448;2023-03-01T07:29:29;3.60;63.30
63219;DHT22;49320;52.512;13.448;2023-03-01T07:31:56;3.70;64.00
63219;DHT22;49320;52.512;13.448;2023-03-01T07:34:23;3.80;63.90
63219;DHT22;49320;52.512;13.448;2023-03-01T07:36:50;3.90;63.90
63219;DHT22;49320;52.512;13.448;2023-03-01T07:39:17;4.00;63.90
63219;DHT22;49320;52.512;13.448;2023-03-01T07:41:45;3.70;63.60
63219;DHT22;49320;52.512;13.448;2023-03-01T07:44:12;4.20;63.80
63219;DHT22;49320;52.512;13.448;2023-03-01T07:46:38;4.20;63.20
63219;DHT22;49320;52.512;13.448;2023-03-01T07:49:05;4.30;63.60
63219;DHT22;49320;52.512;13.448;2023-03-01T07:51:34;4.40;63.30
63219;DHT22;49320;52.512;13.448;2023-03-01T07:56:28;4.60;62.20
63219;DHT22;49320;52.512;13.448;2023-03-01T07:58:56;4.70;62.60
63219;DHT22;49320;52.512;13.448;2023-03-01T08:01:23;4.80;61.70
63219;DHT22;49320;52.512;13.448;2023-03-01T08:03:50;4.90;62.10
63219;DHT22;49320;52.512;13.448;2023-03-01T08:06:17;5.00;61.90
63219;DHT22;49320;52.512;13.448;2023-03-01T08:08:45;5.10;61.60
63219;DHT22;49320;52.512;13.448;2023-03-01T08:11:14;5.20;61.40
63219;DHT22;49320;52.512;13.448;2023-03-01T08:13:42;5.30;60.10
63219;DHT22;49320;52.512;13.448;2023-03-01T08:16:14;5.30;60.80
63219;DHT22;49320;52.512;13.448;2023-03-01T08:18:42;5.50;59.70
63219;DHT22;49320;52.512;13.448;2023-03-01T08:21:15;5.40;60.20
63219;DHT22;49320;52.512;13.448;2023-03-01T08:23:43;5.50;59.40
63219;DHT22;49320;52.512;13.448;2023-03-01T08:26:13;5.70;59.80
63219;DHT22;49320;52.512;13.448;2023-03-01T08:28:42;5.60;59.80
63219;DHT22;49320;52.512;13.448;2023-03-01T08:31:24;5.70;59.60
63219;DHT22;49320;52.512;13.448;2023-03-01T08:34:02;5.80;58.70
63219;DHT22;49320;52.512;13.448;2023-03-01T08:36:35;5.90;59.40
63219;DHT22;49320;52.512;13.448;2023-03-01T08:39:05;5.90;59.30
63219;DHT22;49320;52.512;13.448;2023-03-01T08:41:32;6.00;59.30
63219;DHT22;49320;52.512;13.448;2023-03-01T08:43:59;6.10;59.20
63219;DHT22;49320;52.512;13.448;2023-03-01T08:46:27;6.10;58.50
63219;DHT22;49320;52.512;13.448;2023-03-01T08:48:57;6.20;59.10
63219;DHT22;49320;52.512;13.448;2023-03-01T08:51:25;6.30;59.00
63219;DHT22;49320;52.512;13.448;2023-03-01T08:53:52;6.40;59.00
63219;DHT22;49320;52.512;13.448;2023-03-01T08:56:19;6.50;58.90
63219;DHT22;49320;52.512;13.448;2023-03-01T08:58:48;6.50;58.80
63219;DHT22;49320;52.512;13.448;2023-03-01T09:01:18;6.60;58.50
63219;DHT22;49320;52.512;13.448;2023-03-01T09:03:46;6.60;58.50
63219;DHT22;49320;52.512;13.448;2023-03-01T09:06:13;6.70;58.30
63219;DHT22;49320;52.512;13.448;2023-03-01T09:08:43;6.80;58.00
63219;DHT22;49320;52.512;13.448;2023-03-01T09:11:14;6.80;57.80
63219;DHT22;49320;52.512;13.448;2023-03-01T09:13:44;6.90;57.80
63219;DHT22;49320;52.512;13.448;2023-03-01T09:16:13;6.90;57.70
63219;DHT22;49320;52.512;13.448;2023-03-01T09:18:48;7.00;57.10
63219;DHT22;49320;52.512;13.448;2023-03-01T09:21:17;7.00;57.50
63219;DHT22;49320;52.512;13.448;2023-03-01T09:23:57;7.10;57.40
63219;DHT22;49320;52.512;13.448;2023-03-01T09:26:25;7.20;57.20
63219;DHT22;49320;52.512;13.448;2023-03-01T09:28:53;7.20;57.10
63219;DHT22;49320;52.512;13.448;2023-03-01T09:31:24;7.20;56.90
63219;DHT22;49320;52.512;13.448;2023-03-01T09:33:52;7.30;56.80
63219;DHT22;49320;52.512;13.448;2023-03-01T09:36:22;7.40;55.70
63219;DHT22;49320;52.512;13.448;2023-03-01T09:38:52;7.40;56.10
63219;DHT22;49320;52.512;13.448;2023-03-01T09:44:27;7.40;56.10
63219;DHT22;49320;52.512;13.448;2023-03-01T09:47:35;7.50;56.00
63219;DHT22;49320;52.512;13.448;2023-03-01T09:50:12;7.60;56.20
63219;DHT22;49320;52.512;13.448;2023-03-01T09:53:32;7.60;55.60
63219;DHT22;49320;52.512;13.448;2023-03-01T09:55:48;7.60;55.80
63219;DHT22;49320;52.512;13.448;2023-03-01T09:58:36;7.70;55.60
63219;DHT22;49320;52.512;13.448;2023-03-01T10:01:26;7.80;55.40
63219;DHT22;49320;52.512;13.448;2023-03-01T10:04:23;7.80;55.50
63219;DHT22;49320;52.512;13.448;2023-03-01T10:09:49;8.00;55.20
63219;DHT22;49320;52.512;13.448;2023-03-01T10:12:30;8.10;54.20
63219;DHT22;49320;52.512;13.448;2023-03-01T10:15:10;8.00;54.50
63219;DHT22;49320;52.512;13.448;2023-03-01T10:20:19;8.20;54.50
63219;DHT22;49320;52.512;13.448;2023-03-01T10:22:48;8.20;53.60
63219;DHT22;49320;52.512;13.448;2023-03-01T10:25:46;8.30;54.30
63219;DHT22;49320;52.512;13.448;2023-03-01T10:28:48;8.30;53.80
63219;DHT22;49320;52.512;13.448;2023-03-01T10:31:25;8.40;53.10
63219;DHT22;49320;52.512;13.448;2023-03-01T10:33:56;8.50;54.40
63219;DHT22;49320;52.512;13.448;2023-03-01T10:36:23;8.40;54.10
63219;DHT22;49320;52.512;13.448;2023-03-01T10:38:54;8.20;53.50
63219;DHT22;49320;52.512;13.448;2023-03-01T10:41:25;8.40;53.50
63219;DHT22;49320;52.512;13.448;2023-03-01T10:43:55;8.60;53.30
63219;DHT22;49320;52.512;13.448;2023-03-01T10:46:35;8.50;53.30
63219;DHT22;49320;52.512;13.448;2023-03-01T10:49:21;8.50;53.20
63219;DHT22;49320;52.512;13.448;2023-03-01T10:51:51;8.50;53.00
63219;DHT22;49320;52.512;13.448;2023-03-01T10:54:30;8.50;53.50
63219;DHT22;49320;52.512;13.448;2023-03-01T10:57:00;8.60;53.20
63219;DHT22;49320;52.512;13.448;2023-03-01T10:59:33;8.60;53.10
63219;DHT22;49320;52.512;13.448;2023-03-01T11:02:26;8.70;53.00
63219;DHT22;49320;52.512;13.448;2023-03-01T11:07:55;8.70;51.80
63219;DHT22;49320;52.512;13.448;2023-03-01T11:10:35;8.80;52.00
63219;DHT22;49320;52.512;13.448;2023-03-01T11:13:20;8.80;52.00
63219;DHT22;49320;52.512;13.448;2023-03-01T11:16:06;8.80;51.50
63219;DHT22;49320;52.512;13.448;2023-03-01T11:18:36;8.80;51.50
63219;DHT22;49320;52.512;13.448;2023-03-01T11:21:13;8.90;51.90
63219;DHT22;49320;52.512;13.448;2023-03-01T11:23:43;8.90;51.80
63219;DHT22;49320;52.512;13.448;2023-03-01T11:26:13;9.00;51.70
63219;DHT22;49320;52.512;13.448;2023-03-01T11:28:42;9.00;50.80
63219;DHT22;49320;52.512;13.448;2023-03-01T11:31:13;9.00;51.50
63219;DHT22;49320;52.512;13.448;2023-03-01T11:33:57;9.10;51.30
63219;DHT22;49320;52.512;13.448;2023-03-01T11:36:54;9.20;49.40
63219;DHT22;49320;52.512;13.448;2023-03-01T11:39:43;9.20;50.50
63219;DHT22;49320;52.512;13.448;2023-03-01T11:42:20;9.30;50.60
63219;DHT22;49320;52.512;13.448;2023-03-01T11:44:54;9.20;50.90
63219;DHT22;49320;52.512;13.448;2023-03-01T11:50:42;9.40;50.10
63219;DHT22;49320;52.512;13.448;2023-03-01T11:56:02;9.50;50.50
63219;DHT22;49320;52.512;13.448;2023-03-01T12:01:48;9.60;49.60
63219;DHT22;49320;52.512;13.448;2023-03-01T12:04:54;9.70;50.30
63219;DHT22;49320;52.512;13.448;2023-03-01T12:07:53;9.80;50.20
63219;DHT22;49320;52.512;13.448;2023-03-01T12:14:08;9.90;49.10
63219;DHT22;49320;52.512;13.448;2023-03-01T12:20:11;10.00;49.10
63219;DHT22;49320;52.512;13.448;2023-03-01T12:26:20;10.00;48.90
63219;DHT22;49320;52.512;13.448;2023-03-01T12:35:03;10.20;49.00
63219;DHT22;49320;52.512;13.448;2023-03-01T12:37:54;10.20;48.20
63219;DHT22;49320;52.512;13.448;2023-03-01T12:40:46;10.20;47.80
63219;DHT22;49320;52.512;13.448;2023-03-01T12:43:41;10.30;47.00
63219;DHT22;49320;52.512;13.448;2023-03-01T12:49:32;10.30;47.50
63219;DHT22;49320;52.512;13.448;2023-03-01T12:52:32;10.40;47.30
63219;DHT22;49320;52.512;13.448;2023-03-01T12:55:16;10.40;47.20
63219;DHT22;49320;52.512;13.448;2023-03-01T13:01:45;10.40;47.30
63219;DHT22;49320;52.512;13.448;2023-03-01T13:04:40;10.50;47.00
63219;DHT22;49320;52.512;13.448;2023-03-01T13:07:55;10.50;47.10
63219;DHT22;49320;52.512;13.448;2023-03-01T13:10:48;10.50;47.20
63219;DHT22;49320;52.512;13.448;2023-03-01T13:13:25;10.50;46.70
63219;DHT22;49320;52.512;13.448;2023-03-01T13:15:54;10.50;46.90
63219;DHT22;49320;52.512;13.448;2023-03-01T13:20:51;10.50;46.80
63219;DHT22;49320;52.512;13.448;2023-03-01T13:44:34;10.60;45.10
63219;DHT22;49320;52.512;13.448;2023-03-01T13:55:42;10.70;46.30
63219;DHT22;49320;52.512;13.448;2023-03-01T13:58:25;10.70;46.40
63219;DHT22;49320;52.512;13.448;2023-03-01T14:01:07;10.80;46.50
63219;DHT22;49320;52.512;13.448;2023-03-01T14:03:46;10.80;46.40
63219;DHT22;49320;52.512;13.448;2023-03-01T14:06:21;10.80;46.50
63219;DHT22;49320;52.512;13.448;2023-03-01T14:09:14;10.80;44.80
63219;DHT22;49320;52.512;13.448;2023-03-01T14:15:06;10.90;46.20
63219;DHT22;49320;52.512;13.448;2023-03-01T14:17:59;10.90;45.60
63219;DHT22;49320;52.512;13.448;2023-03-01T14:20:42;10.90;45.70
63219;DHT22;49320;52.512;13.448;2023-03-01T14:23:19;11.00;45.90
63219;DHT22;49320;52.512;13.448;2023-03-01T14:25:56;11.00;45.10
63219;DHT22;49320;52.512;13.448;2023-03-01T14:28:26;11.00;45.70
63219;DHT22;49320;52.512;13.448;2023-03-01T14:30:57;11.00;46.20
63219;DHT22;49320;52.512;13.448;2023-03-01T14:33:36;11.00;46.20
63219;DHT22;49320;52.512;13.448;2023-03-01T14:36:09;11.00;45.30
63219;DHT22;49320;52.512;13.448;2023-03-01T14:41:20;11.10;46.10
63219;DHT22;49320;52.512;13.448;2023-03-01T14:46:38;11.10;46.00
63219;DHT22;49320;52.512;13.448;2023-03-01T14:49:14;11.10;46.00
63219;DHT22;49320;52.512;13.448;2023-03-01T14:51:52;11.10;46.20
63219;DHT22;49320;52.512;13.448;2023-03-01T14:54:29;11.10;45.80
63219;DHT22;49320;52.512;13.448;2023-03-01T14:57:14;11.20;46.40
63219;DHT22;49320;52.512;13.448;2023-03-01T14:59:44;11.10;46.20
63219;DHT22;49320;52.512;13.448;2023-03-01T15:02:16;11.20;46.40
63219;DHT22;49320;52.512;13.448;2023-03-01T15:04:55;11.20;45.40
63219;DHT22;49320;52.512;13.448;2023-03-01T15:07:30;11.10;46.20
63219;DHT22;49320;52.512;13.448;2023-03-01T15:09:58;11.20;46.40
63219;DHT22;49320;52.512;13.448;2023-03-01T15:14:56;11.10;46.50
63219;DHT22;49320;52.512;13.448;2023-03-01T15:17:35;10.10;46.20
63219;DHT22;49320;52.512;13.448;2023-03-01T15:20:15;11.30;46.70
63219;DHT22;49320;52.512;13.448;2023-03-01T15:22:44;11.30;46.70
63219;DHT22;49320;52.512;13.448;2023-03-01T15:25:19;11.30;46.00
63219;DHT22;49320;52.512;13.448;2023-03-01T15:27:50;11.10;46.10
63219;DHT22;49320;52.512;13.448;2023-03-01T15:30:33;11.10;45.90
63219;DHT22;49320;52.512;13.448;2023-03-01T15:33:27;11.30;46.50
63219;DHT22;49320;52.512;13.448;2023-03-01T15:36:29;11.30;46.50
63219;DHT22;49320;52.512;13.448;2023-03-01T15:39:00;11.40;46.90
63219;DHT22;49320;52.512;13.448;2023-03-01T15:41:31;11.50;46.70
63219;DHT22;49320;52.512;13.448;2023-03-01T15:44:27;11.60;45.80
63219;DHT22;49320;52.512;13.448;2023-03-01T15:47:29;11.60;46.00
63219;DHT22;49320;52.512;13.448;2023-03-01T15:49:57;11.60;45.60
63219;DHT22;49320;52.512;13.448;2023-03-01T15:52:40;11.50;46.00
63219;DHT22;49320;52.512;13.448;2023-03-01T15:55:20;11.50;46.40
63219;DHT22;49320;52.512;13.448;2023-03-01T15:57:49;11.60;46.60
63219;DHT22;49320;52.512;13.448;2023-03-01T16:00:25;11.50;45.90
63219;DHT22;49320;52.512;13.448;2023-03-01T16:02:52;11.50;46.80
63219;DHT22;49320;52.512;13.448;2023-03-01T16:05:26;11.60;46.10
63219;DHT22;49320;52.512;13.448;2023-03-01T16:07:57;11.50;46.60
63219;DHT22;49320;52.512;13.448;2023-03-01T16:10:25;11.40;46.60
63219;DHT22;49320;52.512;13.448;2023-03-01T16:12:52;11.40;46.80
63219;DHT22;49320;52.512;13.448;2023-03-01T16:15:20;11.40;46.80
63219;DHT22;49320;52.512;13.448;2023-03-01T16:17:49;11.30;46.70
63219;DHT22;49320;52.512;13.448;2023-03-01T16:20:16;11.30;46.80
63219;DHT22;49320;52.512;13.448;2023-03-01T16:22:54;11.30;46.80
63219;DHT22;49320;52.512;13.448;2023-03-01T16:25:21;11.30;47.00
63219;DHT22;49320;52.512;13.448;2023-03-01T16:27:50;11.20;47.00
63219;DHT22;49320;52.512;13.448;2023-03-01T16:30:20;11.20;47.00
63219;DHT22;49320;52.512;13.448;2023-03-01T16:32:49;11.20;47.00
63219;DHT22;49320;52.512;13.448;2023-03-01T16:35:18;11.10;47.10
63219;DHT22;49320;52.512;13.448;2023-03-01T16:37:47;11.10;47.20
63219;DHT22;49320;52.512;13.448;2023-03-01T16:40:26;11.10;47.20
63219;DHT22;49320;52.512;13.448;2023-03-01T16:42:55;11.00;46.30
63219;DHT22;49320;52.512;13.448;2023-03-01T16:45:27;11.00;47.30
63219;DHT22;49320;52.512;13.448;2023-03-01T16:47:58;11.00;47.30
63219;DHT22;49320;52.512;13.448;2023-03-01T16:50:25;11.00;47.40
63219;DHT22;49320;52.512;13.448;2023-03-01T16:52:52;10.90;47.50
63219;DHT22;49320;52.512;13.448;2023-03-01T16:55:19;10.90;47.50
63219;DHT22;49320;52.512;13.448;2023-03-01T16:57:45;10.80;47.50
63219;DHT22;49320;52.512;13.448;2023-03-01T17:00:13;10.80;47.50
63219;DHT22;49320;52.512;13.448;2023-03-01T17:02:41;10.80;47.60
63219;DHT22;49320;52.512;13.448;2023-03-01T17:05:09;10.80;47.70
63219;DHT22;49320;52.512;13.448;2023-03-01T17:07:38;10.70;47.70
63219;DHT22;49320;52.512;13.448;2023-03-01T17:10:09;10.70;47.80
63219;DHT22;49320;52.512;13.448;2023-03-01T17:12:37;10.70;47.80
63219;DHT22;49320;52.512;13.448;2023-03-01T17:15:05;10.60;47.90
63219;DHT22;49320;52.512;13.448;2023-03-01T17:17:33;10.60;48.00
63219;DHT22;49320;52.512;13.448;2023-03-01T17:20:01;10.60;48.00
63219;DHT22;49320;52.512;13.448;2023-03-01T17:22:30;10.50;47.50
63219;DHT22;49320;52.512;13.448;2023-03-01T17:24:57;10.30;48.00
63219;DHT22;49320;52.512;13.448;2023-03-01T17:27:24;10.40;47.40
63219;DHT22;49320;52.512;13.448;2023-03-01T17:29:51;10.30;48.20
63219;DHT22;49320;52.512;13.448;2023-03-01T17:32:18;10.30;48.30
63219;DHT22;49320;52.512;13.448;2023-03-01T17:34:44;10.30;48.30
63219;DHT22;49320;52.512;13.448;2023-03-01T17:37:12;10.30;48.40
63219;DHT22;49320;52.512;13.448;2023-03-01T17:39:38;10.10;48.40
63219;DHT22;49320;52.512;13.448;2023-03-01T17:44:33;10.10;48.10
63219;DHT22;49320;52.512;13.448;2023-03-01T17:47:01;10.10;48.20
63219;DHT22;49320;52.512;13.448;2023-03-01T17:49:30;10.00;48.80
63219;DHT22;49320;52.512;13.448;2023-03-01T17:51:57;9.90;48.80